Time;durP1;ratioP1;P1;durP2;ratioP2;P2;SDS_P1;SDS_P2;PMS_P1;PMS_P2;Temp;Humidity;BMP_temperature;BMP_pressure;BME280_temperature;BME280_humidity;BME280_pressure;Samples;Min_cycle;Max_cycle;Signal;HPM_P1;HPM_P2
2023/09/30 00:01:44;;;;;;;6.00;1.45;;;;;;;;;;5047212;28;20900;-70
2023/09/30 00:04:11;;;;;;;3.47;1.58;;;;;;;;;;5047641;28;20228;-71
2023/09/30 00:06:38;;;;;;;3.17;1.70;;;;;;;;;;5042738;28;20212;-71
2023/09/30 00:09:05;;;;;;;3.63;1.40;;;;;;;;;;5046782;28;20211;-70
2023/09/30 00:11:32;;;;;;;2.30;1.52;;;;;;;;;;5047583;28;20208;-71
2023/09/30 00:13:59;;;;;;;3.85;1.48;;;;;;;;;;5028141;28;20283;-70
2023/09/30 00:16:26;;;;;;;2.78;1.63;;;;;;;;;;5042216;28;20218;-70
2023/09/30 00:18:55;;;;;;;3.38;1.45;;;;;;;;;;5046972;28;20223;-70
2023/09/30 00:21:22;;;;;;;4.57;1.73;;;;;;;;;;5046870;28;20203;-69
2023/09/30 00:23:49;;;;;;;3.10;1.80;;;;;;;;;;5046378;28;20219;-70
2023/09/30 00:26:16;;;;;;;1.30;1.20;;;;;;;;;;5046090;28;20207;-70
2023/09/30 00:28:43;;;;;;;2.85;1.30;;;;;;;;;;5046195;28;20591;-70
2023/09/30 00:31:10;;;;;;;1.63;1.50;;;;;;;;;;5036176;28;20219;-70
2023/09/30 00:33:38;;;;;;;3.63;1.40;;;;;;;;;;5042418;28;20249;-70
2023/09/30 00:36:09;;;;;;;2.25;1.80;;;;;;;;;;5046324;28;20207;-70
2023/09/30 00:38:36;;;;;;;2.60;1.55;;;;;;;;;;5045713;28;20242;-70
2023/09/30 00:41:03;;;;;;;2.03;1.33;;;;;;;;;;5044978;28;20210;-71
2023/09/30 00:43:31;;;;;;;3.42;1.48;;;;;;;;;;5045994;28;20223;-70
2023/09/30 00:46:03;;;;;;;5.50;1.55;;;;;;;;;;5046619;28;20663;-70
2023/09/30 00:48:30;;;;;;;2.97;1.60;;;;;;;;;;5045719;28;20210;-70
2023/09/30 00:50:57;;;;;;;2.60;1.42;;;;;;;;;;5045733;28;20200;-71
2023/09/30 00:53:25;;;;;;;2.78;1.40;;;;;;;;;;5045778;28;20684;-71
2023/09/30 00:55:54;;;;;;;4.55;2.05;;;;;;;;;;5046168;28;20204;-71
2023/09/30 00:58:23;;;;;;;1.92;1.73;;;;;;;;;;5046236;28;20208;-71
2023/09/30 01:00:50;;;;;;;5.95;1.75;;;;;;;;;;5045488;28;20853;-70
2023/09/30 01:03:17;;;;;;;1.90;1.45;;;;;;;;;;5046098;28;20744;-70
2023/09/30 01:05:44;;;;;;;2.42;1.65;;;;;;;;;;5042267;28;20219;-70
2023/09/30 01:08:11;;;;;;;1.60;1.50;;;;;;;;;;5045767;28;20214;-70
2023/09/30 01:10:40;;;;;;;2.33;1.98;;;;;;;;;;5039398;28;20214;-71
2023/09/30 01:13:07;;;;;;;2.25;1.67;;;;;;;;;;5050177;28;20210;-70
2023/09/30 01:15:34;;;;;;;3.50;2.08;;;;;;;;;;5049918;28;20207;-70
2023/09/30 01:18:01;;;;;;;3.35;2.00;;;;;;;;;;5049226;28;20585;-70
2023/09/30 01:20:28;;;;;;;4.63;2.28;;;;;;;;;;5049900;28;20203;-71
2023/09/30 01:22:57;;;;;;;4.18;2.55;;;;;;;;;;5048683;28;20239;-70
2023/09/30 01:25:24;;;;;;;4.78;1.98;;;;;;;;;;5048634;28;21009;-70
2023/09/30 01:27:52;;;;;;;3.97;2.35;;;;;;;;;;5047474;28;20207;-71
2023/09/30 01:30:19;;;;;;;5.15;2.13;;;;;;;;;;5048078;28;20607;-71
2023/09/30 01:32:46;;;;;;;7.13;2.40;;;;;;;;;;5047773;28;20208;-70
2023/09/30 01:35:13;;;;;;;3.55;2.28;;;;;;;;;;5044876;28;20204;-71
2023/09/30 01:37:40;;;;;;;2.03;1.85;;;;;;;;;;5048627;28;20218;-70
2023/09/30 01:40:11;;;;;;;2.20;1.85;;;;;;;;;;5048372;28;20212;-70
2023/09/30 01:42:38;;;;;;;3.85;1.92;;;;;;;;;;5029562;28;20204;-70
2023/09/30 01:45:06;;;;;;;4.65;2.05;;;;;;;;;;5048363;28;20654;-70
2023/09/30 01:47:33;;;;;;;6.18;2.40;;;;;;;;;;5048584;28;20207;-70
2023/09/30 01:50:00;;;;;;;6.95;1.90;;;;;;;;;;5048526;28;20215;-70
2023/09/30 01:52:28;;;;;;;3.33;2.08;;;;;;;;;;5048917;28;20216;-71
2023/09/30 01:54:55;;;;;;;5.32;2.35;;;;;;;;;;5048133;28;20227;-70
2023/09/30 01:57:23;;;;;;;2.53;1.85;;;;;;;;;;5048489;28;20203;-71
2023/09/30 01:59:51;;;;;;;6.40;2.20;;;;;;;;;;5048482;28;20215;-70
2023/09/30 02:02:18;;;;;;;3.92;1.95;;;;;;;;;;5048732;28;20290;-71
2023/09/30 02:04:45;;;;;;;3.60;2.60;;;;;;;;;;5047753;28;20885;-71
2023/09/30 02:07:12;;;;;;;6.38;2.47;;;;;;;;;;5048928;28;20211;-70
2023/09/30 02:09:39;;;;;;;4.03;2.08;;;;;;;;;;5047873;28;20290;-70
2023/09/30 02:12:08;;;;;;;5.97;2.63;;;;;;;;;;5048757;28;20227;-70
2023/09/30 02:14:37;;;;;;;4.15;2.45;;;;;;;;;;5048421;28;20215;-71
2023/09/30 02:17:04;;;;;;;3.05;2.10;;;;;;;;;;5048598;28;20254;-71
2023/09/30 02:19:33;;;;;;;6.95;2.60;;;;;;;;;;5040926;28;20238;-70
2023/09/30 02:24:12;;;;;;;4.97;2.92;;;;;;;;;;5187409;27;21064;-71
2023/09/30 02:26:39;;;;;;;3.55;2.45;;;;;;;;;;5170830;27;20204;-71
2023/09/30 02:29:07;;;;;;;3.17;2.22;;;;;;;;;;5157525;27;20192;-71
2023/09/30 02:31:34;;;;;;;7.13;2.42;;;;;;;;;;5165925;27;20195;-71
2023/09/30 02:34:03;;;;;;;4.28;2.30;;;;;;;;;;5169515;27;20222;-70
2023/09/30 02:36:30;;;;;;;4.15;2.00;;;;;;;;;;5181564;27;20290;-71
2023/09/30 02:38:58;;;;;;;4.57;2.70;;;;;;;;;;5184309;27;20233;-70
2023/09/30 02:41:26;;;;;;;5.18;2.40;;;;;;;;;;5181714;27;20191;-72
2023/09/30 02:43:53;;;;;;;4.03;2.50;;;;;;;;;;5178772;27;20214;-72
2023/09/30 02:46:20;;;;;;;5.03;1.83;;;;;;;;;;5171051;27;20212;-72
2023/09/30 02:48:47;;;;;;;4.40;2.20;;;;;;;;;;5167193;27;20658;-72
2023/09/30 02:51:14;;;;;;;3.47;2.33;;;;;;;;;;5169341;27;20202;-72
2023/09/30 02:53:41;;;;;;;4.20;1.92;;;;;;;;;;5166224;27;20622;-72
2023/09/30 02:56:08;;;;;;;4.50;2.30;;;;;;;;;;5175466;27;20826;-72
2023/09/30 02:58:38;;;;;;;4.80;2.05;;;;;;;;;;5186829;27;20669;-70
2023/09/30 03:01:06;;;;;;;3.72;2.15;;;;;;;;;;5168563;27;20203;-70
2023/09/30 03:03:33;;;;;;;2.28;1.88;;;;;;;;;;5165784;27;20231;-70
2023/09/30 03:06:00;;;;;;;3.88;2.00;;;;;;;;;;5174796;27;20211;-72
2023/09/30 03:08:28;;;;;;;2.40;2.22;;;;;;;;;;5186851;27;20224;-73
2023/09/30 03:10:55;;;;;;;4.43;2.10;;;;;;;;;;5178838;27;20204;-72
2023/09/30 03:13:22;;;;;;;4.78;2.22;;;;;;;;;;5148858;27;20200;-73
2023/09/30 03:15:51;;;;;;;5.50;2.03;;;;;;;;;;5165965;27;20268;-73
2023/09/30 03:18:22;;;;;;;4.05;2.15;;;;;;;;;;5166251;27;20219;-72
2023/09/30 03:20:50;;;;;;;4.00;1.80;;;;;;;;;;5173107;27;20199;-71
2023/09/30 03:23:17;;;;;;;4.20;2.47;;;;;;;;;;5173753;27;20748;-70
2023/09/30 03:25:44;;;;;;;5.80;2.13;;;;;;;;;;5165727;27;20204;-70
2023/09/30 03:28:12;;;;;;;5.13;2.10;;;;;;;;;;5181969;27;20207;-70
2023/09/30 03:30:39;;;;;;;3.83;2.17;;;;;;;;;;5151098;27;20200;-71
2023/09/30 03:33:07;;;;;;;4.85;1.83;;;;;;;;;;5155981;27;20404;-71
2023/09/30 03:35:36;;;;;;;2.90;2.00;;;;;;;;;;5151673;27;20212;-71
2023/09/30 03:38:04;;;;;;;6.47;1.92;;;;;;;;;;5172011;27;20204;-70
2023/09/30 03:40:33;;;;;;;6.05;2.03;;;;;;;;;;5171948;27;20211;-73
2023/09/30 03:43:01;;;;;;;3.42;2.08;;;;;;;;;;5169249;27;20223;-70
2023/09/30 03:45:28;;;;;;;5.28;2.05;;;;;;;;;;5151127;27;20224;-71
2023/09/30 03:47:55;;;;;;;4.22;2.15;;;;;;;;;;5151473;27;20223;-70
2023/09/30 03:50:24;;;;;;;3.33;2.38;;;;;;;;;;5156555;27;20245;-70
2023/09/30 03:52:51;;;;;;;3.92;1.85;;;;;;;;;;5159406;27;20204;-70
2023/09/30 03:55:20;;;;;;;2.38;1.92;;;;;;;;;;5155005;27;20200;-70
2023/09/30 03:57:47;;;;;;;2.35;1.60;;;;;;;;;;5150128;27;20609;-70
2023/09/30 04:00:18;;;;;;;6.18;2.25;;;;;;;;;;5150411;27;20239;-70
2023/09/30 04:02:48;;;;;;;5.28;1.80;;;;;;;;;;5168267;27;20768;-70
2023/09/30 04:05:16;;;;;;;5.55;2.30;;;;;;;;;;5163836;27;20203;-71
2023/09/30 04:07:45;;;;;;;4.40;2.00;;;;;;;;;;5152126;27;20546;-70
2023/09/30 04:10:12;;;;;;;5.07;2.30;;;;;;;;;;5167946;27;20203;-70
2023/09/30 04:12:39;;;;;;;5.50;2.20;;;;;;;;;;5172018;27;20196;-71
2023/09/30 04:15:07;;;;;;;3.08;2.50;;;;;;;;;;5152487;27;20204;-72
2023/09/30 04:17:34;;;;;;;6.20;2.70;;;;;;;;;;5150717;27;20793;-72
2023/09/30 04:20:01;;;;;;;6.75;2.95;;;;;;;;;;5152209;27;20212;-71
2023/09/30 04:22:28;;;;;;;7.07;2.92;;;;;;;;;;5161118;27;20236;-71
2023/09/30 04:24:56;;;;;;;4.63;2.63;;;;;;;;;;5149789;27;20236;-72
2023/09/30 04:27:23;;;;;;;4.28;2.60;;;;;;;;;;5150797;27;20215;-72
2023/09/30 04:29:50;;;;;;;7.35;2.92;;;;;;;;;;5146992;27;20407;-72
2023/09/30 04:32:18;;;;;;;13.02;2.70;;;;;;;;;;5150515;27;20208;-72
2023/09/30 04:34:46;;;;;;;8.02;3.47;;;;;;;;;;5150399;27;20204;-72
2023/09/30 04:37:14;;;;;;;5.80;2.60;;;;;;;;;;5150343;27;20285;-72
2023/09/30 04:39:41;;;;;;;5.05;3.10;;;;;;;;;;5149119;27;20227;-72
2023/09/30 04:42:11;;;;;;;6.78;3.00;;;;;;;;;;5147021;27;20208;-72
2023/09/30 04:44:38;;;;;;;5.45;2.90;;;;;;;;;;5150056;27;20320;-72
2023/09/30 04:47:05;;;;;;;4.82;2.90;;;;;;;;;;5149115;27;20585;-73
2023/09/30 04:49:33;;;;;;;6.65;2.63;;;;;;;;;;5150132;27;20196;-72
2023/09/30 04:52:00;;;;;;;5.13;2.17;;;;;;;;;;5148578;27;20207;-72
2023/09/30 04:54:29;;;;;;;5.30;2.83;;;;;;;;;;5151483;27;20712;-72
2023/09/30 04:56:56;;;;;;;6.38;2.72;;;;;;;;;;5148351;27;20231;-72
2023/09/30 04:59:25;;;;;;;4.10;2.45;;;;;;;;;;5150992;27;20257;-72
2023/09/30 05:01:53;;;;;;;4.13;2.53;;;;;;;;;;5151309;27;20604;-72
2023/09/30 05:04:20;;;;;;;3.50;2.10;;;;;;;;;;5148630;27;20220;-72
2023/09/30 05:06:47;;;;;;;2.58;2.15;;;;;;;;;;5147118;27;20196;-72
2023/09/30 05:09:14;;;;;;;5.88;1.92;;;;;;;;;;5149060;27;20207;-72
2023/09/30 05:11:41;;;;;;;9.65;3.60;;;;;;;;;;5148819;27;20263;-72
2023/09/30 05:14:08;;;;;;;5.35;2.90;;;;;;;;;;5149570;27;20688;-72
2023/09/30 05:16:36;;;;;;;6.20;2.50;;;;;;;;;;5149363;27;20205;-72
2023/09/30 05:19:04;;;;;;;7.57;2.70;;;;;;;;;;5150937;27;20354;-72
2023/09/30 05:21:31;;;;;;;9.30;2.72;;;;;;;;;;5147847;27;20197;-72
2023/09/30 05:23:58;;;;;;;4.53;3.10;;;;;;;;;;5151032;27;20236;-72
2023/09/30 05:26:25;;;;;;;5.93;2.60;;;;;;;;;;5148682;27;20196;-73
2023/09/30 05:28:53;;;;;;;4.78;2.78;;;;;;;;;;5151842;27;20304;-72
2023/09/30 05:31:21;;;;;;;4.63;2.40;;;;;;;;;;5148197;27;20207;-72
2023/09/30 05:33:50;;;;;;;3.22;2.65;;;;;;;;;;5148107;27;20568;-73
2023/09/30 05:36:17;;;;;;;3.00;2.53;;;;;;;;;;5148635;27;20200;-73
2023/09/30 05:38:44;;;;;;;5.95;2.47;;;;;;;;;;5145828;27;20204;-72
2023/09/30 05:41:11;;;;;;;4.28;2.42;;;;;;;;;;5143058;27;20209;-72
2023/09/30 05:43:38;;;;;;;4.50;2.30;;;;;;;;;;5143048;27;20216;-71
2023/09/30 05:46:07;;;;;;;4.68;2.08;;;;;;;;;;5142025;27;20326;-71
2023/09/30 05:48:34;;;;;;;2.97;1.88;;;;;;;;;;5141711;27;20284;-71
2023/09/30 05:51:03;;;;;;;7.03;2.58;;;;;;;;;;5143112;27;20657;-72
2023/09/30 05:53:32;;;;;;;6.07;2.70;;;;;;;;;;5143142;27;20205;-72
2023/09/30 05:56:02;;;;;;;5.70;2.70;;;;;;;;;;5142427;27;20227;-71
2023/09/30 05:58:29;;;;;;;7.57;2.80;;;;;;;;;;5144923;27;20200;-71
2023/09/30 06:00:56;;;;;;;2.97;2.30;;;;;;;;;;5147456;27;21006;-71
2023/09/30 06:03:23;;;;;;;6.85;2.92;;;;;;;;;;5143711;27;20224;-71
2023/09/30 06:05:50;;;;;;;6.53;3.10;;;;;;;;;;5146120;27;20204;-72
2023/09/30 06:08:19;;;;;;;5.22;3.38;;;;;;;;;;5147107;27;20199;-72
2023/09/30 06:10:46;;;;;;;6.47;3.88;;;;;;;;;;5147725;27;20279;-75
2023/09/30 06:13:15;;;;;;;6.32;3.35;;;;;;;;;;5148256;27;20196;-71
2023/09/30 06:15:43;;;;;;;5.38;3.47;;;;;;;;;;5148955;27;20613;-72
2023/09/30 06:18:13;;;;;;;6.43;3.33;;;;;;;;;;5145799;27;20220;-71
2023/09/30 06:20:40;;;;;;;11.10;3.15;;;;;;;;;;5148841;27;20291;-72
2023/09/30 06:23:07;;;;;;;4.47;3.03;;;;;;;;;;5146493;27;20927;-71
2023/09/30 06:25:36;;;;;;;5.13;2.70;;;;;;;;;;5147960;27;20650;-71
2023/09/30 06:28:03;;;;;;;4.00;2.67;;;;;;;;;;5149043;27;20196;-72
2023/09/30 06:30:30;;;;;;;5.15;2.88;;;;;;;;;;5143714;27;20203;-71
2023/09/30 06:32:59;;;;;;;4.07;2.20;;;;;;;;;;5142105;27;20200;-71
2023/09/30 06:35:26;;;;;;;5.45;2.90;;;;;;;;;;5142698;27;20196;-72
2023/09/30 06:37:53;;;;;;;5.18;2.70;;;;;;;;;;5144024;27;20220;-71
2023/09/30 06:40:20;;;;;;;4.38;2.72;;;;;;;;;;5146234;27;20208;-71
2023/09/30 06:42:49;;;;;;;4.25;2.78;;;;;;;;;;5143188;27;20204;-71
2023/09/30 06:45:17;;;;;;;6.40;2.80;;;;;;;;;;5142726;27;20231;-72
2023/09/30 06:47:45;;;;;;;3.97;2.90;;;;;;;;;;5142375;27;20204;-71
2023/09/30 06:50:16;;;;;;;5.97;2.75;;;;;;;;;;5142533;27;20624;-71
2023/09/30 06:52:45;;;;;;;3.05;2.85;;;;;;;;;;5143320;27;20320;-71
2023/09/30 06:55:13;;;;;;;5.32;2.78;;;;;;;;;;5145583;27;20198;-74
2023/09/30 06:57:41;;;;;;;8.82;3.30;;;;;;;;;;5142310;27;20211;-71
2023/09/30 07:00:11;;;;;;;6.40;2.95;;;;;;;;;;5141758;27;20209;-72
2023/09/30 07:02:39;;;;;;;3.53;3.22;;;;;;;;;;5142702;27;20200;-71
2023/09/30 07:05:07;;;;;;;5.18;2.90;;;;;;;;;;5144597;27;20966;-72
2023/09/30 07:07:34;;;;;;;5.45;2.63;;;;;;;;;;5142003;27;20204;-72
2023/09/30 07:10:01;;;;;;;5.43;3.20;;;;;;;;;;5149048;27;20569;-71
2023/09/30 07:12:28;;;;;;;4.13;3.33;;;;;;;;;;5150269;27;20212;-71
2023/09/30 07:14:55;;;;;;;7.78;3.50;;;;;;;;;;5151258;27;20220;-71
2023/09/30 07:17:24;;;;;;;5.45;3.30;;;;;;;;;;5151086;27;20331;-71
2023/09/30 07:19:51;;;;;;;4.50;3.45;;;;;;;;;;5151803;27;20218;-71
2023/09/30 07:22:18;;;;;;;4.20;3.13;;;;;;;;;;5150439;27;20314;-71
2023/09/30 07:24:45;;;;;;;6.32;3.88;;;;;;;;;;5151052;27;20227;-71
2023/09/30 07:27:12;;;;;;;6.82;3.83;;;;;;;;;;5151171;27;20205;-71
2023/09/30 07:29:39;;;;;;;6.05;3.83;;;;;;;;;;5141645;27;20215;-67
2023/09/30 07:32:07;;;;;;;8.98;4.00;;;;;;;;;;5145563;27;20315;-66
2023/09/30 07:34:35;;;;;;;5.38;4.03;;;;;;;;;;5146413;27;20204;-61
2023/09/30 07:37:03;;;;;;;5.93;3.72;;;;;;;;;;5145913;27;20200;-67
2023/09/30 07:39:31;;;;;;;9.73;4.32;;;;;;;;;;5147870;27;20204;-64
2023/09/30 07:41:58;;;;;;;12.52;3.78;;;;;;;;;;5146676;27;20836;-64
2023/09/30 07:44:25;;;;;;;6.97;3.92;;;;;;;;;;5146498;27;20217;-63
2023/09/30 07:46:51;;;;;;;7.50;3.38;;;;;;;;;;5146553;27;20209;-65
2023/09/30 07:49:19;;;;;;;5.40;4.38;;;;;;;;;;5145181;27;20192;-69
2023/09/30 07:51:50;;;;;;;10.82;4.63;;;;;;;;;;5145785;27;20204;-64
2023/09/30 07:54:17;;;;;;;13.48;4.38;;;;;;;;;;5146732;27;20205;-66
2023/09/30 07:56:44;;;;;;;8.93;4.88;;;;;;;;;;5146125;27;20642;-65
2023/09/30 07:59:11;;;;;;;5.38;4.47;;;;;;;;;;5147962;27;20219;-65
2023/09/30 08:01:38;;;;;;;5.47;3.83;;;;;;;;;;5146703;27;20279;-67
2023/09/30 08:04:06;;;;;;;7.72;4.22;;;;;;;;;;5146737;27;20224;-65
2023/09/30 08:06:33;;;;;;;7.57;3.70;;;;;;;;;;5143699;27;20216;-64
2023/09/30 08:09:02;;;;;;;7.00;3.63;;;;;;;;;;5146515;27;20209;-65
2023/09/30 08:11:32;;;;;;;5.47;3.55;;;;;;;;;;5143307;27;20356;-64
2023/09/30 08:14:06;;;;;;;9.18;4.03;;;;;;;;;;5143595;27;20647;-64
2023/09/30 08:16:33;;;;;;;7.43;3.90;;;;;;;;;;5145815;27;20193;-65
2023/09/30 08:19:00;;;;;;;6.45;4.05;;;;;;;;;;5144492;27;20216;-65
2023/09/30 08:21:27;;;;;;;5.63;4.10;;;;;;;;;;5144911;27;20192;-66
2023/09/30 08:23:54;;;;;;;6.60;3.70;;;;;;;;;;5144345;27;20255;-65
2023/09/30 08:26:24;;;;;;;8.25;4.00;;;;;;;;;;5146530;27;20244;-66
2023/09/30 08:28:51;;;;;;;10.45;3.95;;;;;;;;;;5143551;27;20688;-66
2023/09/30 08:31:21;;;;;;;4.03;3.60;;;;;;;;;;5142356;27;20200;-66
2023/09/30 08:33:48;;;;;;;4.90;3.42;;;;;;;;;;5141768;27;20205;-65
2023/09/30 08:36:15;;;;;;;7.00;3.83;;;;;;;;;;5144155;27;20205;-65
2023/09/30 08:38:43;;;;;;;3.85;3.03;;;;;;;;;;5146732;27;20193;-65
2023/09/30 08:41:10;;;;;;;4.05;3.60;;;;;;;;;;5142930;27;20277;-66
2023/09/30 08:43:40;;;;;;;6.03;3.53;;;;;;;;;;5144723;27;20200;-66
2023/09/30 08:46:07;;;;;;;6.18;3.50;;;;;;;;;;5144400;27;20203;-65
2023/09/30 08:48:35;;;;;;;4.53;3.22;;;;;;;;;;5145247;27;20204;-65
2023/09/30 08:51:02;;;;;;;4.80;3.10;;;;;;;;;;5145211;27;20204;-66
2023/09/30 08:53:31;;;;;;;6.75;3.70;;;;;;;;;;5143827;27;20196;-66
2023/09/30 08:56:00;;;;;;;6.07;3.40;;;;;;;;;;5143899;27;20203;-65
2023/09/30 08:58:28;;;;;;;9.45;3.30;;;;;;;;;;5144444;27;20204;-66
2023/09/30 09:00:59;;;;;;;5.95;2.97;;;;;;;;;;5144398;27;20196;-64
2023/09/30 09:03:29;;;;;;;5.05;2.60;;;;;;;;;;5143204;27;20291;-65
2023/09/30 09:06:00;;;;;;;5.05;2.72;;;;;;;;;;5149672;27;20216;-67
2023/09/30 09:08:28;;;;;;;6.43;2.88;;;;;;;;;;5149038;27;20766;-65
2023/09/30 09:11:03;;;;;;;4.70;2.85;;;;;;;;;;5149054;27;21110;-66
2023/09/30 09:13:30;;;;;;;8.45;2.78;;;;;;;;;;5149263;27;20211;-66
2023/09/30 09:16:12;;;;;;;2.83;2.60;;;;;;;;;;5149330;27;20253;-66
2023/09/30 09:18:40;;;;;;;5.47;2.92;;;;;;;;;;5145830;27;20610;-66
2023/09/30 09:21:11;;;;;;;4.68;2.38;;;;;;;;;;5149164;27;20219;-66
2023/09/30 09:23:42;;;;;;;6.30;3.03;;;;;;;;;;5148842;27;20327;-66
2023/09/30 09:26:09;;;;;;;5.07;2.80;;;;;;;;;;5148863;27;20322;-67
2023/09/30 09:28:38;;;;;;;5.22;2.20;;;;;;;;;;5148953;27;20214;-66
2023/09/30 09:31:20;;;;;;;3.22;2.05;;;;;;;;;;5129667;27;20510;-66
2023/09/30 09:33:49;;;;;;;3.30;2.20;;;;;;;;;;5135286;27;20325;-66
2023/09/30 09:36:16;;;;;;;6.30;1.90;;;;;;;;;;5142508;27;20718;-66
2023/09/30 09:38:47;;;;;;;1.98;1.67;;;;;;;;;;5145498;27;20208;-67
2023/09/30 09:41:15;;;;;;;6.53;1.90;;;;;;;;;;5144468;27;20590;-66
2023/09/30 09:43:42;;;;;;;2.97;1.60;;;;;;;;;;5144426;27;20416;-66
2023/09/30 09:46:10;;;;;;;2.45;2.25;;;;;;;;;;5143089;27;20248;-66
2023/09/30 09:48:37;;;;;;;3.97;2.20;;;;;;;;;;5144271;27;20204;-66
2023/09/30 09:51:07;;;;;;;4.45;1.60;;;;;;;;;;5142304;27;20204;-66
2023/09/30 09:53:37;;;;;;;2.58;2.00;;;;;;;;;;5143409;27;20246;-66
2023/09/30 09:56:05;;;;;;;1.60;1.50;;;;;;;;;;5142516;27;20196;-66
2023/09/30 09:58:34;;;;;;;3.42;1.90;;;;;;;;;;5144755;27;20200;-66
2023/09/30 10:01:02;;;;;;;3.55;1.63;;;;;;;;;;5140937;27;20242;-66
2023/09/30 10:03:29;;;;;;;3.35;2.15;;;;;;;;;;5142690;27;20212;-67
2023/09/30 10:05:56;;;;;;;3.83;1.92;;;;;;;;;;5143036;27;20273;-65
2023/09/30 10:08:31;;;;;;;3.33;1.80;;;;;;;;;;5144149;27;20239;-65
2023/09/30 10:10:59;;;;;;;4.18;2.30;;;;;;;;;;5143725;27;20294;-67
2023/09/30 10:13:45;;;;;;;4.40;2.30;;;;;;;;;;5142974;27;20205;-65
2023/09/30 10:16:41;;;;;;;4.63;2.13;;;;;;;;;;5142279;27;20669;-65
2023/09/30 10:19:10;;;;;;;7.18;2.40;;;;;;;;;;5142232;27;20223;-65
2023/09/30 10:21:37;;;;;;;5.25;2.47;;;;;;;;;;5142680;27;20203;-64
2023/09/30 10:24:19;;;;;;;4.93;2.50;;;;;;;;;;5143877;27;20236;-64
2023/09/30 10:26:46;;;;;;;5.03;2.42;;;;;;;;;;5142019;27;20678;-64
2023/09/30 10:29:13;;;;;;;4.25;1.98;;;;;;;;;;5144773;27;20207;-64
2023/09/30 10:31:50;;;;;;;3.67;2.10;;;;;;;;;;5143271;27;20207;-64
2023/09/30 10:34:26;;;;;;;3.63;2.10;;;;;;;;;;5143039;27;20204;-65
2023/09/30 10:36:53;;;;;;;6.45;2.25;;;;;;;;;;5142665;27;20212;-67
2023/09/30 10:39:35;;;;;;;7.60;2.38;;;;;;;;;;5145046;27;21099;-65
2023/09/30 10:42:02;;;;;;;5.03;2.67;;;;;;;;;;5143387;27;20223;-65
2023/09/30 10:44:36;;;;;;;6.50;2.60;;;;;;;;;;5143696;27;20298;-67
2023/09/30 10:47:18;;;;;;;3.67;2.05;;;;;;;;;;5147055;27;20195;-67
2023/09/30 10:49:46;;;;;;;4.72;2.33;;;;;;;;;;5146388;27;20777;-65
2023/09/30 10:52:22;;;;;;;3.30;2.20;;;;;;;;;;5147224;27;20675;-67
2023/09/30 10:54:50;;;;;;;4.13;2.08;;;;;;;;;;5147081;27;20270;-67
2023/09/30 10:57:28;;;;;;;7.57;2.53;;;;;;;;;;5146245;27;20571;-67
2023/09/30 11:00:08;;;;;;;4.13;2.28;;;;;;;;;;5146650;27;20215;-67
2023/09/30 11:02:35;;;;;;;4.47;2.58;;;;;;;;;;5148960;27;20211;-67
2023/09/30 11:05:11;;;;;;;5.32;2.42;;;;;;;;;;5147962;27;20774;-65
2023/09/30 11:07:39;;;;;;;3.75;2.50;;;;;;;;;;5146052;27;20200;-66
2023/09/30 11:10:06;;;;;;;2.97;2.08;;;;;;;;;;5145705;27;20208;-66
2023/09/30 11:12:34;;;;;;;2.97;1.80;;;;;;;;;;5146177;27;20209;-66
2023/09/30 11:15:01;;;;;;;3.42;1.90;;;;;;;;;;5146657;27;20291;-67
2023/09/30 11:17:28;;;;;;;3.17;2.30;;;;;;;;;;5144918;27;20278;-68
2023/09/30 11:19:55;;;;;;;5.00;2.00;;;;;;;;;;5144707;27;20212;-68
2023/09/30 11:22:24;;;;;;;4.05;2.15;;;;;;;;;;5145257;27;20232;-67
2023/09/30 11:24:51;;;;;;;3.67;2.00;;;;;;;;;;5145719;27;20231;-68
2023/09/30 11:27:26;;;;;;;6.82;2.70;;;;;;;;;;5144361;27;20204;-68
2023/09/30 11:29:56;;;;;;;2.28;2.08;;;;;;;;;;5145430;27;20204;-67
2023/09/30 11:32:27;;;;;;;2.33;2.13;;;;;;;;;;5145063;27;20303;-65
2023/09/30 11:34:54;;;;;;;5.88;2.78;;;;;;;;;;5146837;27;20249;-65
2023/09/30 11:37:21;;;;;;;4.68;2.00;;;;;;;;;;5150204;27;20212;-66
2023/09/30 11:39:50;;;;;;;2.75;2.30;;;;;;;;;;5144791;27;20590;-66
2023/09/30 11:42:19;;;;;;;3.85;2.20;;;;;;;;;;5150640;27;20212;-66
2023/09/30 11:44:48;;;;;;;2.30;2.10;;;;;;;;;;5150418;27;20200;-64
2023/09/30 11:47:16;;;;;;;7.30;1.77;;;;;;;;;;5150419;27;20212;-64
2023/09/30 11:49:44;;;;;;;2.95;2.25;;;;;;;;;;5149785;27;20200;-65
2023/09/30 11:52:13;;;;;;;3.45;2.08;;;;;;;;;;5150454;27;20239;-64
2023/09/30 11:54:43;;;;;;;2.72;2.05;;;;;;;;;;5149681;27;20200;-64
2023/09/30 11:57:15;;;;;;;4.35;1.70;;;;;;;;;;5150258;27;20200;-63
2023/09/30 11:59:42;;;;;;;5.93;2.35;;;;;;;;;;5149482;27;20264;-64
2023/09/30 12:02:10;;;;;;;3.17;1.90;;;;;;;;;;5149916;27;20215;-64
2023/09/30 12:04:37;;;;;;;3.63;2.08;;;;;;;;;;5149755;27;20204;-64
2023/09/30 12:07:04;;;;;;;4.05;2.53;;;;;;;;;;5149565;27;20232;-63
2023/09/30 12:09:31;;;;;;;2.60;2.10;;;;;;;;;;5149094;27;20200;-64
2023/09/30 12:11:59;;;;;;;2.40;2.03;;;;;;;;;;5149372;27;20610;-64
2023/09/30 12:14:29;;;;;;;3.22;2.05;;;;;;;;;;5149799;27;20196;-64
2023/09/30 12:16:56;;;;;;;4.25;2.17;;;;;;;;;;5150035;27;20573;-63
2023/09/30 12:19:24;;;;;;;2.50;1.70;;;;;;;;;;5148852;27;20220;-69
2023/09/30 12:21:51;;;;;;;2.17;1.88;;;;;;;;;;5148552;27;20766;-64
2023/09/30 12:24:21;;;;;;;2.20;2.00;;;;;;;;;;5149802;27;20204;-64
2023/09/30 12:26:49;;;;;;;4.05;2.10;;;;;;;;;;5151893;27;20310;-63
2023/09/30 12:29:17;;;;;;;2.33;2.20;;;;;;;;;;5158010;27;20209;-64
2023/09/30 12:31:45;;;;;;;4.88;2.28;;;;;;;;;;5155021;27;20260;-64
2023/09/30 12:34:12;;;;;;;2.40;1.98;;;;;;;;;;5167679;27;20203;-64
2023/09/30 12:36:40;;;;;;;5.40;2.50;;;;;;;;;;5151882;27;20195;-64
2023/09/30 12:39:10;;;;;;;4.03;2.05;;;;;;;;;;5148847;27;20200;-63
2023/09/30 12:41:37;;;;;;;5.57;1.95;;;;;;;;;;5149539;27;20334;-66
2023/09/30 12:44:04;;;;;;;2.80;2.20;;;;;;;;;;5148061;27;20207;-65
2023/09/30 12:46:34;;;;;;;2.42;2.28;;;;;;;;;;5149339;27;20221;-66
2023/09/30 12:49:02;;;;;;;2.83;2.40;;;;;;;;;;5166469;27;20207;-66
2023/09/30 12:51:30;;;;;;;4.38;2.17;;;;;;;;;;5154680;27;20208;-66
2023/09/30 12:53:57;;;;;;;2.45;2.13;;;;;;;;;;5151660;27;20980;-68
2023/09/30 12:56:24;;;;;;;3.17;1.90;;;;;;;;;;5139440;27;20268;-75
2023/09/30 12:58:51;;;;;;;2.85;2.25;;;;;;;;;;5140079;27;20205;-72
2023/09/30 13:01:18;;;;;;;3.35;1.90;;;;;;;;;;5135624;27;20324;-74
2023/09/30 13:03:46;;;;;;;3.38;1.80;;;;;;;;;;5148198;27;20207;-67
2023/09/30 13:06:15;;;;;;;2.42;2.22;;;;;;;;;;5138297;27;20267;-71
2023/09/30 13:08:42;;;;;;;3.28;2.10;;;;;;;;;;5143501;27;20212;-71
2023/09/30 13:11:11;;;;;;;1.77;1.67;;;;;;;;;;5147505;27;20218;-72
2023/09/30 13:13:38;;;;;;;1.80;1.27;;;;;;;;;;5147207;27;20211;-71
2023/09/30 13:16:05;;;;;;;3.03;2.15;;;;;;;;;;5147253;27;20215;-67
2023/09/30 13:18:33;;;;;;;3.10;1.92;;;;;;;;;;5147885;27;20621;-72
2023/09/30 13:21:00;;;;;;;5.85;2.00;;;;;;;;;;5148575;27;20670;-72
2023/09/30 13:23:30;;;;;;;2.13;1.80;;;;;;;;;;5147747;27;20234;-73
2023/09/30 13:25:57;;;;;;;2.30;2.10;;;;;;;;;;5146934;27;20339;-72
2023/09/30 13:28:24;;;;;;;4.10;2.10;;;;;;;;;;5147682;27;20669;-72
2023/09/30 13:30:52;;;;;;;2.30;2.10;;;;;;;;;;5129394;27;20208;-72
2023/09/30 13:33:20;;;;;;;3.53;1.80;;;;;;;;;;5146864;27;20207;-72
2023/09/30 13:35:47;;;;;;;2.30;2.05;;;;;;;;;;5148422;27;20681;-72
2023/09/30 13:38:15;;;;;;;2.15;1.80;;;;;;;;;;5145888;27;20392;-72
2023/09/30 13:40:45;;;;;;;2.60;1.77;;;;;;;;;;5142775;27;20201;-70
2023/09/30 13:43:12;;;;;;;6.15;2.30;;;;;;;;;;5147340;27;20291;-70
2023/09/30 13:45:40;;;;;;;2.47;1.80;;;;;;;;;;5146028;27;20694;-72
2023/09/30 13:48:07;;;;;;;2.88;2.58;;;;;;;;;;5144933;27;20192;-72
2023/09/30 13:50:34;;;;;;;2.80;1.95;;;;;;;;;;5146650;27;20200;-71
2023/09/30 13:53:02;;;;;;;2.90;2.58;;;;;;;;;;5145154;27;20202;-72
2023/09/30 13:55:29;;;;;;;3.58;2.25;;;;;;;;;;5146178;27;20261;-71
2023/09/30 13:57:58;;;;;;;1.95;1.85;;;;;;;;;;5147481;27;20196;-73
2023/09/30 14:00:25;;;;;;;1.88;1.73;;;;;;;;;;5146586;27;20212;-74
2023/09/30 14:02:52;;;;;;;2.80;2.08;;;;;;;;;;5147834;27;20810;-72
2023/09/30 14:05:20;;;;;;;2.90;1.90;;;;;;;;;;5147974;27;20590;-72
2023/09/30 14:07:48;;;;;;;2.38;1.85;;;;;;;;;;5147536;27;20228;-72
2023/09/30 14:10:15;;;;;;;2.15;1.65;;;;;;;;;;5147197;27;20208;-72
2023/09/30 14:12:42;;;;;;;2.75;2.20;;;;;;;;;;5147665;27;20218;-73
2023/09/30 14:15:12;;;;;;;4.20;2.40;;;;;;;;;;5147935;27;20435;-73
2023/09/30 14:17:39;;;;;;;2.70;1.92;;;;;;;;;;5147395;27;20227;-72
2023/09/30 14:20:07;;;;;;;1.77;1.65;;;;;;;;;;5147570;27;20288;-73
2023/09/30 14:22:35;;;;;;;3.03;1.77;;;;;;;;;;5142543;27;20728;-65
2023/09/30 14:25:03;;;;;;;2.15;1.90;;;;;;;;;;5145319;27;20932;-66
2023/09/30 14:27:30;;;;;;;1.90;1.80;;;;;;;;;;5143805;27;20816;-67
2023/09/30 14:29:57;;;;;;;2.15;1.92;;;;;;;;;;5140520;27;20820;-66
2023/09/30 14:32:26;;;;;;;2.10;1.98;;;;;;;;;;5142358;27;20204;-69
2023/09/30 14:34:53;;;;;;;3.83;2.55;;;;;;;;;;5145272;27;20256;-68
2023/09/30 14:37:20;;;;;;;2.60;2.00;;;;;;;;;;5143450;27;20212;-68
2023/09/30 14:39:48;;;;;;;3.35;2.08;;;;;;;;;;5143334;27;20206;-69
2023/09/30 14:42:15;;;;;;;4.82;2.15;;;;;;;;;;5142340;27;20219;-68
2023/09/30 14:44:42;;;;;;;3.03;2.75;;;;;;;;;;5144818;27;20200;-68
2023/09/30 14:47:09;;;;;;;2.10;1.90;;;;;;;;;;5142545;27;20220;-68
2023/09/30 14:49:38;;;;;;;2.65;2.22;;;;;;;;;;5144995;27;20699;-68
2023/09/30 14:52:05;;;;;;;5.95;3.15;;;;;;;;;;5144626;27;20211;-68